Time;durP1;ratioP1;P1;durP2;ratioP2;P2;SDS_P1;SDS_P2;PMS_P1;PMS_P2;Temp;Humidity;BMP_temperature;BMP_pressure;BME280_temperature;BME280_humidity;BME280_pressure;Samples;Min_cycle;Max_cycle;Signal;HPM_P1;HPM_P2
2023/07/19 00:01:28;;;;;;;19.20;6.15;;;24.50;87.00;;;;;;5063649;28;20432;-59
2023/07/19 00:04:32;;;;;;;19.65;5.57;;;24.40;87.30;;;;;;5071835;28;20067;-57
2023/07/19 00:07:37;;;;;;;17.15;5.57;;;24.40;87.60;;;;;;5071529;28;20051;-60
2023/07/19 00:10:41;;;;;;;24.20;6.35;;;24.40;89.10;;;;;;5071222;28;20514;-59
2023/07/19 00:13:45;;;;;;;16.35;5.85;;;24.40;88.70;;;;;;5071298;28;20048;-59
2023/07/19 00:16:49;;;;;;;19.63;5.53;;;24.30;88.50;;;;;;5071299;28;20048;-58
2023/07/19 00:19:53;;;;;;;16.48;4.78;;;24.20;89.10;;;;;;5071505;28;20398;-59
2023/07/19 00:22:59;;;;;;;15.38;5.88;;;24.10;89.30;;;;;;5070357;28;20048;-61
2023/07/19 00:26:03;;;;;;;23.48;5.95;;;24.00;89.00;;;;;;5071307;28;20036;-59
2023/07/19 00:29:06;;;;;;;24.40;6.55;;;24.10;89.00;;;;;;5071124;28;20055;-59
2023/07/19 00:32:11;;;;;;;18.30;5.35;;;24.10;89.00;;;;;;5070647;28;20506;-58
2023/07/19 00:35:17;;;;;;;18.73;5.28;;;24.10;88.80;;;;;;5081529;28;20051;-62
2023/07/19 00:38:21;;;;;;;20.67;5.78;;;24.10;89.70;;;;;;5071110;28;20051;-60
2023/07/19 00:41:26;;;;;;;14.20;5.15;;;24.10;90.20;;;;;;5070407;28;20063;-58
2023/07/19 00:44:30;;;;;;;15.85;6.15;;;24.10;90.70;;;;;;5070149;28;20047;-60
2023/07/19 00:47:34;;;;;;;16.95;5.90;;;24.10;90.80;;;;;;5081770;28;20518;-59
2023/07/19 00:50:38;;;;;;;14.75;5.22;;;24.00;91.10;;;;;;5070829;28;20047;-58
2023/07/19 00:53:44;;;;;;;28.30;6.45;;;23.90;91.40;;;;;;5081256;28;20044;-58
2023/07/19 00:56:48;;;;;;;19.35;5.70;;;23.90;91.70;;;;;;5070500;28;20043;-59
2023/07/19 00:59:52;;;;;;;18.23;5.80;;;23.80;92.40;;;;;;5081698;28;20047;-58
2023/07/19 01:02:57;;;;;;;18.88;5.22;;;23.80;92.30;;;;;;5069166;28;20035;-59
2023/07/19 01:06:03;;;;;;;22.15;6.30;;;23.70;92.40;;;;;;5070686;28;20043;-63
2023/07/19 01:09:07;;;;;;;25.15;5.93;;;23.60;92.60;;;;;;5071093;28;20067;-60
2023/07/19 01:12:11;;;;;;;16.73;5.05;;;23.60;93.10;;;;;;5069964;28;20055;-58
2023/07/19 01:15:16;;;;;;;17.95;5.68;;;23.50;94.00;;;;;;5070650;28;20048;-61
2023/07/19 01:18:20;;;;;;;15.95;5.05;;;23.40;95.00;;;;;;5070953;28;20047;-58
2023/07/19 01:21:24;;;;;;;22.23;6.90;;;23.40;95.70;;;;;;5062532;28;20063;-61
2023/07/19 01:24:28;;;;;;;15.82;6.10;;;23.50;95.60;;;;;;5070756;28;20043;-61
2023/07/19 01:27:32;;;;;;;14.15;4.88;;;23.40;95.70;;;;;;5069848;28;20051;-60
2023/07/19 01:30:35;;;;;;;14.98;5.20;;;23.30;95.60;;;;;;5081720;28;20071;-58
2023/07/19 01:33:40;;;;;;;16.83;5.95;;;23.30;95.80;;;;;;5069319;28;20051;-59
2023/07/19 01:36:45;;;;;;;19.83;5.88;;;23.30;96.40;;;;;;5070695;28;20048;-61
2023/07/19 01:39:49;;;;;;;14.68;5.30;;;23.20;96.90;;;;;;5070373;28;20044;-59
2023/07/19 01:42:54;;;;;;;18.10;5.45;;;23.10;97.10;;;;;;5081004;28;20055;-60
2023/07/19 01:45:59;;;;;;;17.50;5.60;;;23.00;97.70;;;;;;5070266;28;20039;-61
2023/07/19 01:49:03;;;;;;;16.92;5.63;;;22.90;98.20;;;;;;5070216;28;20060;-61
2023/07/19 01:52:07;;;;;;;21.02;5.97;;;22.80;99.20;;;;;;5069970;28;20044;-60
2023/07/19 01:55:11;;;;;;;14.20;5.57;;;22.70;99.90;;;;;;5081085;28;20506;-59
2023/07/19 01:58:16;;;;;;;13.52;5.00;;;22.70;99.90;;;;;;5070386;28;20404;-59
2023/07/19 02:01:20;;;;;;;20.45;6.13;;;22.70;99.90;;;;;;5081258;28;20047;-58
2023/07/19 02:04:23;;;;;;;17.10;5.78;;;22.60;99.90;;;;;;5070140;28;20055;-58
2023/07/19 02:07:28;;;;;;;15.23;5.72;;;22.70;99.90;;;;;;5070342;28;20047;-59
2023/07/19 02:10:32;;;;;;;18.23;5.78;;;22.60;99.90;;;;;;5070458;28;20498;-59
2023/07/19 02:13:36;;;;;;;14.93;5.72;;;22.60;99.90;;;;;;5068463;28;20451;-62
2023/07/19 02:16:39;;;;;;;13.88;5.68;;;22.50;99.90;;;;;;5069926;28;20043;-59
2023/07/19 02:19:45;;;;;;;19.05;5.28;;;22.40;99.90;;;;;;5069897;28;20047;-58
2023/07/19 02:22:49;;;;;;;16.13;5.68;;;22.40;99.90;;;;;;5080402;28;20052;-57
2023/07/19 02:25:53;;;;;;;17.67;5.93;;;22.40;99.90;;;;;;5069819;28;20055;-57
2023/07/19 02:28:58;;;;;;;15.93;5.90;;;22.30;99.90;;;;;;5080948;28;20044;-60
2023/07/19 02:32:04;;;;;;;28.17;6.22;;;22.20;99.90;;;;;;5069547;28;20534;-58
2023/07/19 02:35:07;;;;;;;11.35;5.32;;;22.20;99.90;;;;;;5070699;28;20035;-58
2023/07/19 02:38:11;;;;;;;20.45;6.50;;;22.10;99.90;;;;;;5073456;28;20506;-58
2023/07/19 02:41:15;;;;;;;16.85;6.97;;;22.10;99.90;;;;;;5072352;28;20048;-63
2023/07/19 02:44:19;;;;;;;17.92;6.13;;;22.00;99.90;;;;;;5073128;28;20069;-58
2023/07/19 02:47:23;;;;;;;15.23;6.18;;;21.90;99.90;;;;;;5072211;28;20059;-58
2023/07/19 02:50:27;;;;;;;27.25;6.78;;;21.90;99.90;;;;;;5083795;28;20518;-58
2023/07/19 02:53:31;;;;;;;16.17;6.28;;;21.90;99.90;;;;;;5071424;28;20059;-57
2023/07/19 02:56:36;;;;;;;16.75;6.28;;;21.90;99.90;;;;;;5083868;28;20048;-60
2023/07/19 02:59:40;;;;;;;22.23;7.40;;;21.70;99.90;;;;;;5072796;28;20040;-58
2023/07/19 03:02:46;;;;;;;17.05;5.90;;;21.70;99.90;;;;;;5072672;28;20036;-62
2023/07/19 03:05:50;;;;;;;24.70;7.10;;;21.70;99.90;;;;;;5072656;28;20055;-57
2023/07/19 03:08:54;;;;;;;18.52;7.53;;;21.70;99.90;;;;;;5072008;28;20419;-59
2023/07/19 03:11:58;;;;;;;18.45;6.53;;;21.80;99.90;;;;;;5072473;28;20047;-60
2023/07/19 03:15:02;;;;;;;20.20;6.65;;;21.70;99.90;;;;;;5071441;28;20044;-62
2023/07/19 03:18:07;;;;;;;14.43;6.43;;;21.60;99.90;;;;;;5083320;28;20419;-58
2023/07/19 03:21:11;;;;;;;22.05;7.15;;;21.50;99.90;;;;;;5071495;28;20036;-58
2023/07/19 03:24:16;;;;;;;15.05;6.43;;;21.60;99.90;;;;;;5072350;28;20510;-58
2023/07/19 03:27:20;;;;;;;24.58;6.90;;;21.60;99.90;;;;;;5072471;28;20039;-59
2023/07/19 03:30:24;;;;;;;20.23;7.15;;;21.70;99.90;;;;;;5072437;28;20043;-59
2023/07/19 03:33:28;;;;;;;22.55;7.97;;;21.70;99.90;;;;;;5072294;28;20047;-60
2023/07/19 03:36:32;;;;;;;18.42;6.80;;;21.70;99.90;;;;;;5072153;28;20055;-61
2023/07/19 03:39:36;;;;;;;21.10;7.25;;;21.60;99.90;;;;;;5072299;28;20044;-58
2023/07/19 03:42:40;;;;;;;48.33;29.10;;;21.60;99.90;;;;;;5071451;28;20048;-58
2023/07/19 03:45:44;;;;;;;23.75;8.68;;;21.50;99.90;;;;;;5070557;28;20047;-61
2023/07/19 03:48:48;;;;;;;22.55;8.35;;;21.50;99.90;;;;;;5082962;28;20044;-57
2023/07/19 03:51:52;;;;;;;27.67;7.65;;;21.30;99.90;;;;;;5082637;28;20051;-58
2023/07/19 03:54:57;;;;;;;29.75;9.75;;;21.30;99.90;;;;;;5082288;28;20415;-57
2023/07/19 03:58:05;;;;;;;25.50;9.32;;;21.20;99.90;;;;;;5082487;28;20056;-58
2023/07/19 04:01:09;;;;;;;20.17;8.18;;;21.20;99.90;;;;;;5082655;28;20419;-59
2023/07/19 04:04:13;;;;;;;20.90;9.60;;;21.20;99.90;;;;;;5070427;28;20069;-61
2023/07/19 04:07:17;;;;;;;22.65;7.32;;;21.20;99.90;;;;;;5071757;28;20039;-58
2023/07/19 04:10:20;;;;;;;19.60;6.68;;;21.20;99.90;;;;;;5082463;28;20051;-60
2023/07/19 04:13:26;;;;;;;22.10;7.03;;;21.20;99.90;;;;;;5082235;28;20056;-58
2023/07/19 04:16:30;;;;;;;18.88;7.05;;;21.20;99.90;;;;;;5071534;28;20387;-60
2023/07/19 04:19:34;;;;;;;17.00;6.97;;;21.30;99.90;;;;;;5082230;28;20032;-59
2023/07/19 04:22:39;;;;;;;20.65;7.32;;;21.30;99.90;;;;;;5070399;28;20047;-60
2023/07/19 04:25:43;;;;;;;23.25;6.93;;;21.30;99.90;;;;;;5070221;28;20047;-61
2023/07/19 04:28:47;;;;;;;16.02;6.85;;;21.20;99.90;;;;;;5081915;28;20044;-58
2023/07/19 04:31:52;;;;;;;22.38;8.27;;;21.30;99.90;;;;;;5069885;28;20102;-59
2023/07/19 04:34:55;;;;;;;17.02;7.50;;;21.30;99.90;;;;;;5070798;28;20406;-57
2023/07/19 04:38:00;;;;;;;18.10;8.70;;;21.40;99.90;;;;;;5070157;28;20517;-57
2023/07/19 04:41:04;;;;;;;23.85;7.43;;;21.50;99.90;;;;;;5081780;28;20040;-57
2023/07/19 04:44:10;;;;;;;17.10;7.20;;;21.40;99.90;;;;;;5081679;28;20047;-57
2023/07/19 04:47:14;;;;;;;20.33;7.13;;;21.60;99.90;;;;;;5070069;28;20055;-61
2023/07/19 04:50:18;;;;;;;24.42;7.55;;;22.00;99.90;;;;;;5070121;28;20569;-61
2023/07/19 04:53:22;;;;;;;16.60;7.35;;;22.40;99.90;;;;;;5070750;28;20055;-59
2023/07/19 04:56:27;;;;;;;21.73;7.18;;;22.50;99.90;;;;;;5080012;22;20048;-54
2023/07/19 04:59:32;;;;;;;19.17;6.78;;;22.90;99.90;;;;;;5063363;28;20043;-51
2023/07/19 05:02:36;;;;;;;25.90;7.50;;;23.40;99.90;;;;;;5058852;28;20047;-50
2023/07/19 05:05:40;;;;;;;24.98;6.93;;;23.70;99.90;;;;;;5072516;28;20050;-50
2023/07/19 05:08:44;;;;;;;20.70;7.32;;;24.20;99.90;;;;;;5059880;28;20043;-55
2023/07/19 05:11:48;;;;;;;26.55;7.80;;;24.80;99.90;;;;;;5058257;28;20043;-52
2023/07/19 05:14:52;;;;;;;22.23;7.30;;;25.40;99.90;;;;;;5058097;28;20051;-53
2023/07/19 05:17:56;;;;;;;16.48;6.53;;;26.00;99.90;;;;;;5058491;28;20057;-54
2023/07/19 05:21:02;;;;;;;19.35;6.50;;;26.70;99.90;;;;;;5058323;28;20035;-56
2023/07/19 05:24:06;;;;;;;26.65;7.13;;;27.40;99.90;;;;;;5070909;28;20035;-57
2023/07/19 05:27:15;;;;;;;18.13;6.60;;;27.70;99.90;;;;;;5057960;28;20043;-51
2023/07/19 05:30:19;;;;;;;20.30;6.28;;;27.40;99.90;;;;;;5070759;28;20502;-57
2023/07/19 05:33:23;;;;;;;17.40;7.03;;;27.30;99.90;;;;;;5070521;28;20051;-58
2023/07/19 05:36:27;;;;;;;16.02;6.45;;;28.30;99.90;;;;;;5070114;28;20050;-54
2023/07/19 05:39:31;;;;;;;24.42;6.45;;;28.60;99.90;;;;;;5063508;28;20111;-57
2023/07/19 05:42:35;;;;;;;16.65;5.65;;;28.90;99.90;;;;;;5070402;28;20047;-56
2023/07/19 05:45:39;;;;;;;15.02;6.25;;;29.30;99.90;;;;;;5070073;28;20051;-58
2023/07/19 05:48:44;;;;;;;14.93;6.38;;;29.50;99.80;;;;;;5070414;28;20194;-54
2023/07/19 05:51:48;;;;;;;15.48;6.22;;;29.90;99.40;;;;;;5070265;28;20048;-53
2023/07/19 05:54:51;;;;;;;21.63;5.80;;;30.40;98.70;;;;;;5070443;28;20055;-56
2023/07/19 05:57:56;;;;;;;17.13;5.55;;;30.70;97.20;;;;;;5070456;28;20059;-55
2023/07/19 06:01:00;;;;;;;17.48;5.32;;;30.70;96.20;;;;;;5070330;28;20044;-56
2023/07/19 06:04:05;;;;;;;19.65;5.22;;;30.30;96.70;;;;;;5070717;28;20044;-53
2023/07/19 06:07:08;;;;;;;14.60;5.53;;;30.90;95.80;;;;;;5069573;28;20043;-54
2023/07/19 06:10:13;;;;;;;21.10;6.03;;;30.90;95.00;;;;;;5070458;28;20055;-52
2023/07/19 06:13:17;;;;;;;20.55;5.97;;;31.20;95.20;;;;;;5075456;28;20052;-55
2023/07/19 06:16:21;;;;;;;23.38;5.70;;;32.10;93.80;;;;;;5073597;28;20055;-55
2023/07/19 06:19:25;;;;;;;15.43;5.60;;;31.90;93.50;;;;;;5073949;28;20051;-57
2023/07/19 06:22:29;;;;;;;20.38;5.60;;;32.30;93.20;;;;;;5073432;28;20051;-56
2023/07/19 06:25:32;;;;;;;19.13;5.78;;;32.50;92.50;;;;;;5073384;28;20043;-52
2023/07/19 06:28:36;;;;;;;17.83;5.55;;;31.70;93.10;;;;;;5073139;28;20047;-54
2023/07/19 06:31:40;;;;;;;15.55;5.75;;;31.00;92.60;;;;;;5072658;28;20052;-55
2023/07/19 06:34:44;;;;;;;21.00;5.40;;;30.30;93.20;;;;;;5072763;28;20422;-55
2023/07/19 06:37:48;;;;;;;16.50;5.70;;;29.10;93.60;;;;;;5072740;28;20411;-55
2023/07/19 06:40:53;;;;;;;19.00;5.32;;;30.70;94.30;;;;;;5072419;28;20035;-50
2023/07/19 06:43:57;;;;;;;14.27;5.25;;;31.90;93.10;;;;;;5072200;28;20024;-52
2023/07/19 06:47:03;;;;;;;14.57;5.35;;;32.60;92.40;;;;;;5072587;28;20043;-54
2023/07/19 06:50:08;;;;;;;19.73;5.80;;;32.90;91.60;;;;;;5072962;28;20032;-55
2023/07/19 06:53:11;;;;;;;23.48;5.30;;;32.30;91.20;;;;;;5071851;28;20043;-52
2023/07/19 06:56:15;;;;;;;19.33;5.85;;;31.40;91.90;;;;;;5070443;28;20063;-55
2023/07/19 06:59:19;;;;;;;14.32;6.00;;;31.50;93.80;;;;;;5072328;28;20043;-55
2023/07/19 07:02:23;;;;;;;20.23;6.00;;;31.50;93.50;;;;;;5052428;28;20044;-57
2023/07/19 07:05:27;;;;;;;18.20;5.65;;;31.80;93.70;;;;;;5052798;28;20131;-56
2023/07/19 07:08:32;;;;;;;13.07;5.25;;;33.10;92.70;;;;;;5063025;28;20059;-55
2023/07/19 07:11:36;;;;;;;14.35;5.57;;;34.50;92.00;;;;;;5067015;28;20304;-55
2023/07/19 07:14:40;;;;;;;10.63;5.45;;;33.90;91.10;;;;;;5072310;28;20059;-57
2023/07/19 07:17:45;;;;;;;18.52;5.00;;;34.80;90.60;;;;;;5070775;28;20035;-53
2023/07/19 07:20:52;;;;;;;13.82;4.72;;;35.40;90.40;;;;;;5062541;28;20040;-57
2023/07/19 07:23:56;;;;;;;15.73;5.40;;;36.50;88.60;;;;;;5072335;28;20036;-54
2023/07/19 07:27:03;;;;;;;19.38;5.18;;;36.90;87.40;;;;;;5071927;28;20048;-53
2023/07/19 07:30:08;;;;;;;17.65;5.20;;;37.70;86.70;;;;;;5072642;28;20059;-57
2023/07/19 07:33:12;;;;;;;15.95;5.20;;;37.90;85.40;;;;;;5071929;28;20049;-57
2023/07/19 07:36:16;;;;;;;15.38;5.22;;;36.60;86.10;;;;;;5072087;28;20043;-54
2023/07/19 07:39:20;;;;;;;22.95;5.60;;;34.70;89.30;;;;;;5072293;28;20047;-54
2023/07/19 07:42:24;;;;;;;16.15;4.85;;;34.20;89.30;;;;;;5071347;28;20399;-54
2023/07/19 07:45:28;;;;;;;17.42;6.05;;;35.50;89.50;;;;;;5071881;28;20052;-56
2023/07/19 07:48:32;;;;;;;16.23;5.13;;;35.90;89.40;;;;;;5071508;28;20051;-57
2023/07/19 07:51:36;;;;;;;15.68;5.05;;;37.00;88.00;;;;;;5071519;28;20402;-57
2023/07/19 07:54:40;;;;;;;14.75;5.55;;;35.80;87.20;;;;;;5071993;28;20044;-56
2023/07/19 07:57:45;;;;;;;8.90;4.88;;;33.60;90.60;;;;;;5070953;28;20043;-56
2023/07/19 08:00:51;;;;;;;19.38;5.20;;;34.70;91.10;;;;;;5070611;28;20814;-57
2023/07/19 08:03:56;;;;;;;16.60;5.55;;;35.60;90.00;;;;;;5058759;28;20052;-57
2023/07/19 08:07:00;;;;;;;21.85;5.93;;;34.80;89.90;;;;;;5051224;28;20048;-57
2023/07/19 08:10:04;;;;;;;17.17;5.47;;;34.10;89.70;;;;;;5051562;28;20048;-57
2023/07/19 08:13:10;;;;;;;15.95;5.43;;;35.40;89.50;;;;;;5064144;28;20043;-56
2023/07/19 08:16:14;;;;;;;13.90;5.07;;;37.10;87.80;;;;;;5070039;28;20048;-55
2023/07/19 08:19:18;;;;;;;12.60;5.55;;;38.80;86.40;;;;;;5070869;28;20047;-58
2023/07/19 08:22:26;;;;;;;19.08;4.85;;;39.50;85.00;;;;;;5070751;28;20044;-57
2023/07/19 08:25:30;;;;;;;13.07;4.82;;;38.10;85.90;;;;;;5070692;28;20040;-55
2023/07/19 08:28:34;;;;;;;21.75;5.90;;;38.60;84.80;;;;;;5070127;28;20051;-53
2023/07/19 08:31:38;;;;;;;12.60;4.97;;;37.80;84.80;;;;;;5070174;28;20509;-57
2023/07/19 08:34:42;;;;;;;18.40;5.05;;;38.80;85.10;;;;;;5069269;28;20047;-56
2023/07/19 08:37:46;;;;;;;12.82;4.70;;;38.20;83.50;;;;;;5069789;28;20407;-57
2023/07/19 08:41:02;;;;;;;13.98;4.90;;;38.60;86.10;;;;;;5070440;28;20039;-56
2023/07/19 08:44:06;;;;;;;13.00;4.85;;;38.90;84.30;;;;;;5070826;28;20055;-52
2023/07/19 08:47:12;;;;;;;19.08;5.82;;;41.30;83.00;;;;;;5070305;28;20329;-54
2023/07/19 08:50:17;;;;;;;12.30;4.70;;;39.40;82.80;;;;;;5070616;28;20058;-58
2023/07/19 08:53:23;;;;;;;13.85;5.32;;;40.10;82.90;;;;;;5062204;28;20656;-57
2023/07/19 08:56:31;;;;;;;17.85;5.13;;;41.50;82.10;;;;;;5067671;28;20051;-57
2023/07/19 08:59:35;;;;;;;17.88;5.40;;;39.40;82.30;;;;;;5061682;28;20036;-55
2023/07/19 09:02:39;;;;;;;15.80;5.03;;;41.80;81.20;;;;;;5068717;28;20047;-53
2023/07/19 09:05:46;;;;;;;21.45;5.20;;;40.30;81.30;;;;;;5060616;28;20048;-57
2023/07/19 09:08:51;;;;;;;14.80;4.63;;;40.30;83.40;;;;;;5061463;28;20035;-57
2023/07/19 09:11:55;;;;;;;14.95;5.60;;;41.60;82.10;;;;;;5066102;28;20031;-57
2023/07/19 09:15:00;;;;;;;15.10;5.07;;;43.10;79.20;;;;;;5065440;28;20043;-53
2023/07/19 09:18:05;;;;;;;11.60;4.80;;;42.20;79.90;;;;;;5064563;28;20044;-50
2023/07/19 09:21:09;;;;;;;15.57;5.25;;;43.70;79.10;;;;;;5061195;28;20040;-52
2023/07/19 09:24:14;;;;;;;12.50;4.40;;;42.00;81.20;;;;;;5070196;28;20051;-56
2023/07/19 09:27:24;;;;;;;16.05;4.80;;;43.90;79.40;;;;;;5070375;28;20051;-55
2023/07/19 09:30:28;;;;;;;18.15;5.82;;;41.50;81.50;;;;;;5070431;28;20047;-50
2023/07/19 09:33:32;;;;;;;18.98;5.20;;;41.10;80.20;;;;;;5069883;28;20052;-51
2023/07/19 09:36:36;;;;;;;22.77;5.18;;;41.20;79.10;;;;;;5069932;28;20051;-54
2023/07/19 09:39:41;;;;;;;15.75;5.00;;;40.70;78.20;;;;;;5069912;28;20044;-55
2023/07/19 09:42:45;;;;;;;14.82;4.45;;;41.00;81.60;;;;;;5069825;28;20059;-56
2023/07/19 09:45:50;;;;;;;19.83;5.40;;;41.80;78.30;;;;;;5078873;28;20418;-50
2023/07/19 09:48:54;;;;;;;17.38;4.55;;;44.20;77.80;;;;;;5070722;28;20043;-50
2023/07/19 09:52:01;;;;;;;15.52;4.57;;;45.60;72.00;;;;;;5070550;28;20411;-56
2023/07/19 09:55:06;;;;;;;13.27;4.38;;;46.60;71.90;;;;;;5061003;28;20068;-52
2023/07/19 09:58:12;;;;;;;14.63;4.40;;;47.10;70.60;;;;;;5073609;28;20047;-57
2023/07/19 10:01:16;;;;;;;14.00;4.25;;;47.50;68.70;;;;;;5073909;28;20043;-55
2023/07/19 10:04:24;;;;;;;18.90;5.10;;;47.60;67.70;;;;;;5073960;28;20059;-56
2023/07/19 10:07:29;;;;;;;16.80;4.93;;;47.60;65.20;;;;;;5066942;28;20048;-53
2023/07/19 10:10:38;;;;;;;18.42;4.65;;;48.50;65.70;;;;;;5073904;28;20505;-56
2023/07/19 10:13:53;;;;;;;19.52;5.28;;;49.10;63.30;;;;;;5074451;28;20039;-57
2023/07/19 10:17:06;;;;;;;30.33;5.75;;;49.50;62.50;;;;;;5074849;28;20051;-50
2023/07/19 10:20:14;;;;;;;22.20;5.10;;;49.70;57.90;;;;;;5074954;28;20039;-57
2023/07/19 10:23:18;;;;;;;19.67;4.88;;;50.10;55.30;;;;;;5072896;28;20635;-54
2023/07/19 10:26:30;;;;;;;23.42;4.80;;;50.50;56.60;;;;;;5079620;28;20072;-56
2023/07/19 10:29:44;;;;;;;23.10;5.60;;;50.60;54.10;;;;;;5053225;28;20044;-52
2023/07/19 10:32:50;;;;;;;16.63;4.70;;;48.00;54.90;;;;;;5053162;28;20051;-50
2023/07/19 10:36:04;;;;;;;22.17;5.40;;;48.90;56.10;;;;;;5053319;28;20447;-56
2023/07/19 10:39:08;;;;;;;39.40;5.95;;;49.70;55.00;;;;;;5064478;28;20073;-55
2023/07/19 10:42:12;;;;;;;23.27;5.03;;;50.00;55.20;;;;;;5073014;28;20133;-56
2023/07/19 10:45:16;;;;;;;21.83;4.80;;;49.40;53.70;;;;;;5073315;28;20039;-52
2023/07/19 10:48:27;;;;;;;31.90;6.43;;;50.50;53.30;;;;;;5073197;28;20052;-50
2023/07/19 10:51:31;;;;;;;20.45;4.47;;;51.10;53.70;;;;;;5072491;28;20044;-54
2023/07/19 10:54:35;;;;;;;18.75;5.25;;;47.80;53.20;;;;;;5073088;28;20051;-55
2023/07/19 10:57:40;;;;;;;25.77;5.22;;;49.40;54.70;;;;;;5106421;22;20051;-52
2023/07/19 11:00:44;;;;;;;23.10;5.35;;;49.70;54.10;;;;;;5092764;28;20051;-53
2023/07/19 11:03:48;;;;;;;20.27;5.70;;;44.20;55.30;;;;;;5093201;28;20521;-52
2023/07/19 11:06:59;;;;;;;19.70;5.07;;;45.20;56.00;;;;;;5092075;28;20071;-56
2023/07/19 11:10:04;;;;;;;19.25;5.18;;;43.60;56.50;;;;;;5090906;28;20493;-53
2023/07/19 11:13:08;;;;;;;25.10;5.35;;;46.50;56.70;;;;;;5092019;28;20051;-53
2023/07/19 11:16:12;;;;;;;19.50;4.22;;;47.30;56.80;;;;;;5089053;28;20048;-53
2023/07/19 11:19:37;;;;;;;20.08;5.15;;;45.30;56.70;;;;;;5091963;28;20063;-53
2023/07/19 11:22:41;;;;;;;19.00;5.13;;;45.30;56.70;;;;;;5092288;28;20039;-55
2023/07/19 11:25:46;;;;;;;19.42;5.97;;;44.10;58.00;;;;;;5091722;28;20517;-52
2023/07/19 11:28:59;;;;;;;23.42;5.57;;;44.30;57.80;;;;;;5089163;28;20043;-53
2023/07/19 11:32:16;;;;;;;18.33;5.40;;;44.70;58.20;;;;;;5089509;28;20051;-52
2023/07/19 11:35:29;;;;;;;21.35;4.88;;;45.80;58.50;;;;;;5078610;28;20062;-56
2023/07/19 11:38:36;;;;;;;23.83;5.57;;;47.50;57.50;;;;;;5090186;28;20037;-55
2023/07/19 11:41:42;;;;;;;23.38;4.90;;;48.50;56.20;;;;;;5088680;28;20043;-51
2023/07/19 11:44:46;;;;;;;27.65;4.70;;;49.10;55.40;;;;;;5089124;28;20517;-53
2023/07/19 11:48:01;;;;;;;20.00;4.82;;;49.30;54.70;;;;;;5085691;28;20031;-56
2023/07/19 11:51:07;;;;;;;21.08;4.95;;;49.60;55.60;;;;;;5089083;28;20039;-56
2023/07/19 11:54:11;;;;;;;25.55;5.13;;;49.80;55.60;;;;;;5087901;28;20032;-55
2023/07/19 11:57:15;;;;;;;22.95;4.90;;;50.00;54.50;;;;;;5090957;28;20071;-53
2023/07/19 12:00:23;;;;;;;15.55;5.05;;;50.30;54.90;;;;;;5074569;28;20458;-51
2023/07/19 12:03:27;;;;;;;23.38;4.47;;;50.60;55.50;;;;;;5083933;28;20050;-53
2023/07/19 12:06:31;;;;;;;18.15;4.70;;;50.20;55.20;;;;;;5076705;28;20056;-52
2023/07/19 12:09:36;;;;;;;17.33;5.32;;;49.50;54.80;;;;;;5083235;28;20047;-51
2023/07/19 12:12:40;;;;;;;20.27;5.13;;;49.00;55.80;;;;;;5085469;28;20039;-55
2023/07/19 12:15:44;;;;;;;22.42;5.07;;;47.90;54.40;;;;;;5087446;28;20047;-53
2023/07/19 12:18:48;;;;;;;20.05;6.15;;;47.80;56.10;;;;;;5082039;28;20035;-58
2023/07/19 12:21:53;;;;;;;21.15;5.53;;;46.70;54.50;;;;;;5083621;28;20051;-54
2023/07/19 12:25:00;;;;;;;29.23;5.97;;;46.30;55.60;;;;;;5084712;28;20047;-53
2023/07/19 12:28:04;;;;;;;27.63;5.68;;;42.30;57.80;;;;;;5082819;28;20071;-52
2023/07/19 12:31:08;;;;;;;22.42;5.63;;;41.20;58.10;;;;;;5082214;28;20027;-55
2023/07/19 12:34:12;;;;;;;22.08;5.57;;;42.60;58.50;;;;;;5084207;28;20047;-57
2023/07/19 12:37:17;;;;;;;29.60;6.10;;;44.30;57.40;;;;;;5083904;28;20051;-55
2023/07/19 12:40:21;;;;;;;21.58;6.10;;;45.20;56.50;;;;;;5085108;28;20061;-55
2023/07/19 12:43:25;;;;;;;20.30;6.22;;;45.20;58.10;;;;;;5087844;28;20043;-53
2023/07/19 12:46:29;;;;;;;20.67;5.10;;;43.30;58.60;;;;;;5083346;28;20429;-55
2023/07/19 12:49:34;;;;;;;28.60;5.40;;;43.90;58.30;;;;;;5089736;28;20054;-53
2023/07/19 12:52:38;;;;;;;16.90;4.95;;;44.10;58.00;;;;;;5087269;28;20055;-57
2023/07/19 12:55:43;;;;;;;22.73;5.38;;;44.20;58.10;;;;;;5084999;28;20039;-57
2023/07/19 12:58:47;;;;;;;30.25;6.55;;;44.20;57.60;;;;;;5097743;28;20062;-56
2023/07/19 13:01:52;;;;;;;20.98;5.03;;;44.30;59.10;;;;;;5083640;28;20051;-57
2023/07/19 13:04:57;;;;;;;29.42;6.00;;;44.10;57.30;;;;;;5086999;28;20450;-56
2023/07/19 13:08:01;;;;;;;22.67;5.40;;;43.90;59.40;;;;;;5085159;28;20039;-57
2023/07/19 13:11:06;;;;;;;19.30;4.70;;;43.90;59.30;;;;;;5074539;28;20047;-57
2023/07/19 13:14:13;;;;;;;22.98;5.13;;;43.90;58.00;;;;;;5086572;28;20039;-56
2023/07/19 13:17:17;;;;;;;26.30;5.80;;;44.20;58.20;;;;;;5080786;28;20442;-57
2023/07/19 13:20:23;;;;;;;30.05;5.43;;;44.50;59.60;;;;;;5082329;28;20039;-57
2023/07/19 13:23:28;;;;;;;23.10;5.63;;;44.00;57.30;;;;;;5088298;28;20042;-57
2023/07/19 13:26:33;;;;;;;22.40;5.55;;;43.60;57.90;;;;;;5084539;28;20043;-57
2023/07/19 13:29:37;;;;;;;22.67;5.43;;;43.10;57.50;;;;;;5089275;28;20059;-52
2023/07/19 13:32:41;;;;;;;17.35;5.28;;;42.90;58.90;;;;;;5070180;28;20047;-57
2023/07/19 13:35:45;;;;;;;25.05;5.65;;;42.70;59.50;;;;;;5068429;28;20095;-57
2023/07/19 13:38:50;;;;;;;23.73;5.28;;;42.80;61.00;;;;;;5084921;28;20047;-55
2023/07/19 13:41:54;;;;;;;18.80;5.95;;;42.60;59.90;;;;;;5081517;28;20039;-56
2023/07/19 13:44:58;;;;;;;23.83;5.70;;;42.30;59.90;;;;;;5084184;28;21382;-53
2023/07/19 13:48:03;;;;;;;30.55;6.40;;;42.40;60.50;;;;;;5081382;28;20047;-53
2023/07/19 13:51:07;;;;;;;23.08;5.72;;;42.70;61.10;;;;;;5080550;28;20051;-57
2023/07/19 13:54:11;;;;;;;29.65;5.68;;;42.70;59.90;;;;;;5086624;28;20059;-57
2023/07/19 13:57:15;;;;;;;22.15;5.80;;;42.50;60.40;;;;;;5085727;28;20039;-56
2023/07/19 14:00:19;;;;;;;27.80;6.07;;;42.20;61.50;;;;;;5081874;28;20584;-54
2023/07/19 14:03:23;;;;;;;20.35;5.03;;;42.20;61.30;;;;;;5086862;28;20051;-54
2023/07/19 14:06:28;;;;;;;22.92;6.25;;;42.20;61.70;;;;;;5069041;28;20044;-53
2023/07/19 14:09:32;;;;;;;18.92;5.15;;;41.70;62.60;;;;;;5086726;28;20043;-56
2023/07/19 14:12:39;;;;;;;22.92;5.55;;;41.60;61.20;;;;;;5082444;28;20051;-56
2023/07/19 14:15:43;;;;;;;23.85;5.13;;;41.60;62.10;;;;;;5084922;28;20043;-53
2023/07/19 14:18:47;;;;;;;30.30;6.32;;;41.80;63.00;;;;;;5083862;28;20410;-53
2023/07/19 14:21:51;;;;;;;30.35;5.93;;;41.90;63.40;;;;;;5087937;28;20039;-53
2023/07/19 14:24:55;;;;;;;28.25;5.53;;;41.70;62.90;;;;;;5085006;28;20035;-53
2023/07/19 14:27:59;;;;;;;22.20;6.35;;;41.60;62.40;;;;;;5083876;28;20047;-56
2023/07/19 14:31:03;;;;;;;28.13;6.38;;;40.70;62.80;;;;;;5088482;28;20418;-54
2023/07/19 14:34:07;;;;;;;29.33;6.15;;;40.70;62.40;;;;;;5091868;28;20055;-54
2023/07/19 14:37:11;;;;;;;18.02;5.57;;;40.60;63.40;;;;;;5091676;28;20047;-56
2023/07/19 14:40:15;;;;;;;25.90;6.25;;;40.60;63.80;;;;;;5086996;28;20031;-53
2023/07/19 14:43:21;;;;;;;35.95;6.40;;;40.70;63.80;;;;;;5090513;28;20035;-55
2023/07/19 14:46:25;;;;;;;18.27;6.28;;;40.00;62.30;;;;;;5083642;28;20043;-52
2023/07/19 14:49:29;;;;;;;24.42;5.93;;;40.10;63.50;;;;;;5087920;28;20059;-53
2023/07/19 14:52:34;;;;;;;30.20;5.43;;;40.20;64.50;;;;;;5080957;28;20660;-54
2023/07/19 14:55:37;;;;;;;20.95;5.57;;;40.10;65.00;;;;;;5090640;28;20047;-53
2023/07/19 14:58:42;;;;;;;16.67;5.18;;;39.90;65.60;;;;;;5084495;28;20047;-56
2023/07/19 15:01:46;;;;;;;25.30;5.72;;;39.90;66.10;;;;;;5080873;28;20505;-53
2023/07/19 15:04:49;;;;;;;20.85;5.90;;;39.70;66.00;;;;;;5084368;28;20048;-53
2023/07/19 15:07:53;;;;;;;27.35;5.90;;;39.70;66.90;;;;;;5066223;28;20043;-53
2023/07/19 15:10:57;;;;;;;21.40;5.28;;;39.40;65.20;;;;;;5076092;28;20043;-53
2023/07/19 15:14:02;;;;;;;27.50;5.43;;;39.20;66.40;;;;;;5083839;28;20047;-56
2023/07/19 15:17:07;;;;;;;16.77;5.57;;;39.00;66.50;;;;;;5084531;28;20039;-54
2023/07/19 15:20:11;;;;;;;21.20;6.47;;;38.90;67.40;;;;;;5087458;28;20063;-53
2023/07/19 15:23:15;;;;;;;24.13;6.40;;;38.90;66.80;;;;;;5090742;28;20035;-53
2023/07/19 15:26:19;;;;;;;34.42;6.97;;;38.80;68.40;;;;;;5091650;28;20402;-53
2023/07/19 15:29:24;;;;;;;15.43;5.20;;;38.70;67.50;;;;;;5091474;28;20043;-57
2023/07/19 15:32:29;;;;;;;26.58;5.70;;;38.60;67.90;;;;;;5091580;28;20047;-54
2023/07/19 15:35:33;;;;;;;19.90;5.72;;;38.60;68.30;;;;;;5091572;28;20050;-55
2023/07/19 15:38:41;;;;;;;19.90;6.63;;;38.60;67.70;;;;;;5091542;28;20698;-55
2023/07/19 15:41:46;;;;;;;24.25;5.90;;;38.50;66.80;;;;;;5091109;28;20039;-57
2023/07/19 15:44:50;;;;;;;25.33;6.85;;;38.50;66.90;;;;;;5078322;28;20047;-57
2023/07/19 15:47:54;;;;;;;24.38;5.90;;;38.40;67.60;;;;;;5091031;28;20415;-57